This is the latest recevied weather packets stored in our database for station/object WX3I. If no packets are shown the sender has not sent any weather packets the latest 10 day(s).
| Time | Temp. | Humidity | Pressure | Rain* | Wind** | Luminosity | Snow |
|---|---|---|---|---|---|---|---|
| 1777645205 | 11.67° C | 57% | 1015.6 hPa | 0 mm | - | 759 W/m² | - |
| 1777644304 | 11.11° C | 59% | 1015.8 hPa | 0 mm | - | 701 W/m² | - |
| 1777643105 | 10.56° C | 64% | 1016 hPa | 0 mm | - | 623 W/m² | - |
| 1777642204 | 10.56° C | 63% | 1015.8 hPa | 0 mm | - | 563 W/m² | - |
| 1777641304 | 10.56° C | 65% | 1015.6 hPa | 0 mm | - | 504 W/m² | - |
| 1777639505 | 9.44° C | 69% | 1015.6 hPa | 0 mm | - | 388 W/m² | - |
| 1777637104 | 8.33° C | 74% | 1015.7 hPa | 0 mm | - | 244 W/m² | - |
| 1777633505 | 6.11° C | 83% | 1015.6 hPa | 0 mm | - | 51 W/m² | - |
| 1777632904 | 5.56° C | 85% | 1015.5 hPa | 0 mm | - | 24 W/m² | - |
| 1777632004 | 5.56° C | 86% | 1015.6 hPa | 0 mm | - | 3 W/m² | - |
| 1777631705 | 5.56° C | 87% | 1015.6 hPa | 0 mm | - | 24 W/m² | - |
| 1777630504 | 5.56° C | 87% | 1015.4 hPa | 0 mm | - | 10 W/m² | - |
| 1777629905 | 5.56° C | 87% | 1015.3 hPa | 0 mm | - | 4 W/m² | - |
| 1777628404 | 5.56° C | 87% | 1015.2 hPa | 0 mm | - | 0 W/m² | - |
| 1777628104 | 5.56° C | 87% | 1015.1 hPa | 0 mm | - | 0 W/m² | - |
| 1777626604 | 5.56° C | 86% | 1015 hPa | 0 mm | - | 0 W/m² | - |
| 1777625404 | 5.56° C | 86% | 1015 hPa | 0 mm | - | 0 W/m² | - |
| 1777625104 | 5.56° C | 85% | 1014.9 hPa | 0 mm | - | 0 W/m² | - |
| 1777624504 | 6.11° C | 84% | 1014.8 hPa | 0 mm | - | 0 W/m² | - |
| 1777624204 | 6.11° C | 84% | 1014.7 hPa | 0 mm | - | 0 W/m² | - |
| 1777623905 | 6.11° C | 84% | 1014.8 hPa | 0 mm | - | 0 W/m² | - |
| 1777622404 | 6.11° C | 84% | 1014.7 hPa | 0 mm | - | 0 W/m² | - |
| 1777622104 | 6.11° C | 84% | 1014.7 hPa | 0 mm | - | 0 W/m² | - |
| 1777620305 | 6.67° C | 83% | 1014.5 hPa | 0 mm | - | 0 W/m² | - |
| 1777614304 | 8.33° C | 82% | 1014.2 hPa | 0 mm | - | 0 W/m² | - |
* Rain latest hour (hover to see other rain measurements)
** Current wind speed in m/s (hover to see current wind gust speed)